Weather History for Hays, KS

Change the Weather History Date:

Sunday, October 6, 2013

  Actual Average Record
Temperature  
Mean Temperature 56 °F -  
Max Temperature 69 °F 70 °F 87 °F (1997)
Min Temperature 42 °F 44 °F 30 °F (2012)
Degree Days  
Heating Degree Days 10    
Growing Degree Days 6 (Base 50)    
Moisture  
Dew Point 28 °F    
Average Humidity 39    
Maximum Humidity 66    
Minimum Humidity 20    
Precipitation  
Precipitation 0.00 in - - ()
Sea Level Pressure  
Sea Level Pressure 30.06 in    
Wind  
Wind Speed 15 mph (NW)    
Max Wind Speed 23 mph    
Max Gust Speed 32 mph    
Visibility 10 miles    
Events      
Averages and records for this station are not official NWS values.
T = Trace of Precipitation, MM = Missing Value Source: NWS Daily Summary

Daily Weather History Graph

Daily Weather History Graph

Search for Another Location

Airport:

Trip Planner

Search our weather history database for the weather conditions in past years. The results will help you decide how hot, cold, wet, or windy it might be!

Date:

Astronomy

Oct. 06, 2013 Rise Set
Actual Time 7:37 AM CDT 7:11 PM CDT
Civil Twilight 7:11 AM CDT 7:38 PM CDT
Nautical Twilight 6:40 AM CDT 8:08 PM CDT
Astronomical Twilight 6:09 AM CDT 8:39 PM CDT
Moon 9:22 AM CDT (10/6) 8:13 PM CDT (10/6)
Length of Visible Light 12h 26m
Length of Day
11h 33m
Waxing Crescent, 3% of the Moon is Illuminated
Oct 6
Waxing Crescent
Oct 11
First Quarter
Oct 18
Full
Oct 26
Last Quarter
Nov 3
New

Hourly Weather History & Observations

Time (CDT) Temp. Windchill Dew Point Humidity Pressure Visibility Wind Dir Wind Speed Gust Speed Precip Events Conditions
12:15 AM 46.4 °F 40.1 °F 26.6 °F 46% 30.05 in 10.0 mi WNW 15.0 mph - N/A   Clear
12:35 AM 44.6 °F 38.4 °F 26.6 °F 49% 30.05 in 10.0 mi WNW 12.7 mph - N/A   Clear
12:55 AM 44.6 °F 38.4 °F 26.6 °F 49% 30.05 in 10.0 mi WNW 12.7 mph - N/A   Clear
1:15 AM 44.6 °F 38.8 °F 26.6 °F 49% 30.03 in 10.0 mi West 11.5 mph - N/A   Clear
1:35 AM 44.6 °F 38.8 °F 26.6 °F 49% 30.04 in 10.0 mi West 11.5 mph 17.3 mph N/A   Clear
1:55 AM 44.6 °F 38.4 °F 26.6 °F 49% 30.05 in 10.0 mi WNW 12.7 mph - N/A   Clear
2:15 AM 44.6 °F 39.2 °F 26.6 °F 49% 30.05 in 10.0 mi West 10.4 mph - N/A   Clear
2:35 AM 42.8 °F 37.5 °F 26.6 °F 53% 30.05 in 10.0 mi West 9.2 mph - N/A   Clear
2:55 AM 44.6 °F 38.4 °F 26.6 °F 49% 30.04 in 10.0 mi WNW 12.7 mph 18.4 mph N/A   Clear
3:15 AM 44.6 °F 38.1 °F 26.6 °F 49% 30.03 in 10.0 mi WNW 13.8 mph 18.4 mph N/A   Clear
3:35 AM 46.4 °F 40.1 °F 26.6 °F 46% 30.04 in 10.0 mi WNW 15.0 mph 24.2 mph N/A   Clear
3:55 AM 46.4 °F 39.8 °F 26.6 °F 46% 30.03 in 10.0 mi WNW 16.1 mph 24.2 mph N/A   Clear
4:15 AM 46.4 °F 39.0 °F 26.6 °F 46% 30.03 in 10.0 mi WNW 19.6 mph 24.2 mph N/A   Clear
4:35 AM 46.4 °F 38.5 °F 26.6 °F 46% 30.02 in 10.0 mi WNW 21.9 mph 29.9 mph N/A   Clear
4:55 AM 46.4 °F 39.0 °F 26.6 °F 46% 30.03 in 10.0 mi WNW 19.6 mph 23.0 mph N/A   Clear
5:15 AM 46.4 °F 38.5 °F 26.6 °F 46% 30.03 in 10.0 mi NW 21.9 mph 29.9 mph N/A   Clear
5:35 AM 46.4 °F 39.0 °F 26.6 °F 46% 30.03 in 10.0 mi NW 19.6 mph 28.8 mph N/A   Clear
5:55 AM 46.4 °F 38.5 °F 26.6 °F 46% 30.03 in 10.0 mi NW 21.9 mph 27.6 mph N/A   Clear
6:15 AM 46.4 °F 39.0 °F 26.6 °F 46% 30.04 in 10.0 mi NW 19.6 mph 26.5 mph N/A   Clear
6:35 AM 46.4 °F 39.2 °F 26.6 °F 46% 30.04 in 10.0 mi NW 18.4 mph 26.5 mph N/A   Clear
6:55 AM 46.4 °F 39.2 °F 26.6 °F 46% 30.05 in 10.0 mi NW 18.4 mph 26.5 mph N/A   Clear
7:15 AM 46.4 °F 39.5 °F 26.6 °F 46% 30.05 in 10.0 mi NW 17.3 mph 25.3 mph N/A   Clear
7:35 AM 46.4 °F 39.8 °F 28.4 °F 50% 30.05 in 10.0 mi WNW 16.1 mph - N/A   Clear
7:55 AM 46.4 °F 40.1 °F 28.4 °F 50% 30.05 in 10.0 mi WNW 15.0 mph - N/A   Clear
8:15 AM 46.4 °F 39.8 °F 28.4 °F 50% 30.05 in 10.0 mi NW 16.1 mph 21.9 mph N/A   Clear
8:35 AM 46.4 °F 40.1 °F 28.4 °F 50% 30.05 in 10.0 mi NW 15.0 mph - N/A   Clear
8:55 AM 48.2 °F - 28.4 °F 46% 30.06 in 10.0 mi NW 17.3 mph 23.0 mph N/A   Clear
9:15 AM 50.0 °F - 28.4 °F 43% 30.07 in 10.0 mi NW 21.9 mph 28.8 mph N/A   Clear
9:35 AM 51.8 °F - 28.4 °F 41% 30.08 in 10.0 mi NNW 16.1 mph 25.3 mph N/A   Clear
9:55 AM 53.6 °F - 28.4 °F 38% 30.08 in 10.0 mi NNW 20.7 mph 26.5 mph N/A   Clear
10:15 AM 53.6 °F - 28.4 °F 38% 30.09 in 10.0 mi NNW 20.7 mph - N/A   Clear
10:35 AM 55.4 °F - 28.4 °F 36% 30.09 in 10.0 mi NNW 23.0 mph 32.2 mph N/A   Clear
10:55 AM 57.2 °F - 30.2 °F 36% 30.09 in 10.0 mi NNW 20.7 mph 28.8 mph N/A   Clear
11:15 AM 57.2 °F - 28.4 °F 33% 30.09 in 10.0 mi NNW 20.7 mph 27.6 mph N/A   Clear
11:35 AM 59.0 °F - 28.4 °F 31% 30.09 in 10.0 mi NNW 20.7 mph 29.9 mph N/A   Clear
11:55 AM 60.8 °F - 28.4 °F 29% 30.09 in 10.0 mi NNW 20.7 mph 29.9 mph N/A   Clear
12:15 PM 60.8 °F - 26.6 °F 27% 30.09 in 10.0 mi NNW 16.1 mph 29.9 mph N/A   Clear
12:35 PM 62.6 °F - 24.8 °F 24% 30.09 in 10.0 mi NNW 18.4 mph 26.5 mph N/A   Clear
12:55 PM 62.6 °F - 24.8 °F 24% 30.08 in 10.0 mi NW 19.6 mph 25.3 mph N/A   Clear
1:15 PM 64.4 °F - 24.8 °F 22% 30.08 in 10.0 mi NNW 20.7 mph 27.6 mph N/A   Clear
1:35 PM 64.4 °F - 26.6 °F 24% 30.07 in 10.0 mi NNW 18.4 mph 25.3 mph N/A   Clear
1:55 PM 64.4 °F - 24.8 °F 22% 30.07 in 10.0 mi NNW 19.6 mph 28.8 mph N/A   Clear
2:15 PM 66.2 °F - 24.8 °F 21% 30.05 in 10.0 mi NNW 21.9 mph 28.8 mph N/A   Clear
2:35 PM 66.2 °F - 24.8 °F 21% 30.05 in 10.0 mi NNW 18.4 mph 25.3 mph N/A   Clear
2:55 PM 68.0 °F - 26.6 °F 21% 30.04 in 10.0 mi NW 16.1 mph 24.2 mph N/A   Clear
3:15 PM 68.0 °F - 26.6 °F 21% 30.04 in 10.0 mi NNW 20.7 mph 25.3 mph N/A   Clear
3:35 PM 69.8 °F - 26.6 °F 20% 30.03 in 10.0 mi NW 23.0 mph - N/A   Clear
3:55 PM 69.8 °F - 26.6 °F 20% 30.03 in 10.0 mi NNW 20.7 mph 26.5 mph N/A   Clear
4:15 PM 69.8 °F - 26.6 °F 20% 30.03 in 10.0 mi NW 23.0 mph 27.6 mph N/A   Clear
4:35 PM 69.8 °F - 26.6 °F 20% 30.03 in 10.0 mi NW 21.9 mph 32.2 mph N/A   Clear
4:55 PM 69.8 °F - 26.6 °F 20% 30.03 in 10.0 mi NW 18.4 mph 27.6 mph N/A   Clear
5:15 PM 69.8 °F - 26.6 °F 20% 30.04 in 10.0 mi NNW 21.9 mph 28.8 mph N/A   Clear
5:35 PM 69.8 °F - 26.6 °F 20% 30.04 in 10.0 mi NW 16.1 mph 26.5 mph N/A   Clear
5:55 PM 69.8 °F - 26.6 °F 20% 30.04 in 10.0 mi NW 20.7 mph 28.8 mph N/A   Clear
6:15 PM 69.8 °F - 26.6 °F 20% 30.04 in 10.0 mi NW 17.3 mph 25.3 mph N/A   Clear
6:35 PM 69.8 °F - 28.4 °F 21% 30.05 in 10.0 mi NNW 12.7 mph - N/A   Clear
6:55 PM 66.2 °F - 30.2 °F 26% 30.05 in 10.0 mi NW 12.7 mph - N/A   Clear
7:15 PM 64.4 °F - 30.2 °F 28% 30.05 in 10.0 mi NW 10.4 mph - N/A   Clear
7:35 PM 64.4 °F - 30.2 °F 28% 30.06 in 10.0 mi NNW 9.2 mph - N/A   Clear
7:55 PM 62.6 °F - 30.2 °F 30% 30.07 in 10.0 mi NNW 6.9 mph - N/A   Clear
8:15 PM 60.8 °F - 30.2 °F 31% 30.08 in 10.0 mi NNW 8.1 mph - N/A   Clear
8:35 PM 57.2 °F - 32.0 °F 38% 30.08 in 10.0 mi NNW 8.1 mph - N/A   Clear
8:55 PM 55.4 °F - 32.0 °F 41% 30.09 in 10.0 mi North 3.5 mph - N/A   Clear
9:15 PM 50.0 °F - 33.8 °F 54% 30.10 in 10.0 mi West 4.6 mph - N/A   Clear
9:35 PM 50.0 °F - 33.8 °F 54% 30.10 in 10.0 mi West 5.8 mph - N/A   Clear
9:55 PM 48.2 °F - 33.8 °F 58% 30.11 in 10.0 mi West 5.8 mph - N/A   Clear
10:15 PM 48.2 °F - 33.8 °F 58% 30.11 in 10.0 mi WNW 5.8 mph - N/A   Clear
10:35 PM 48.2 °F - 32.0 °F 54% 30.11 in 10.0 mi WNW 6.9 mph - N/A   Clear
10:55 PM 48.2 °F - 33.8 °F 58% 30.12 in 10.0 mi NW 6.9 mph - N/A   Clear
11:15 PM 46.4 °F 41.9 °F 33.8 °F 62% 30.13 in 10.0 mi NW 9.2 mph - N/A   Clear
11:35 PM 48.2 °F - 32.0 °F 54% 30.13 in 10.0 mi WNW 6.9 mph - N/A   Clear
11:55 PM 44.6 °F 39.7 °F 33.8 °F 66% 30.13 in 10.0 mi NW 9.2 mph - N/A   Clear